sensor_id;sensor_type;location;lat;lon;timestamp;P1;durP1;ratioP1;P2;durP2;ratioP2
54416;SDS011;40326;51.220;7.250;2022-12-18T00:01:36;13.57;;;6.75;;
54416;SDS011;40326;51.220;7.250;2022-12-18T00:04:02;10.90;;;6.05;;
54416;SDS011;40326;51.220;7.250;2022-12-18T00:06:31;7.75;;;5.05;;
54416;SDS011;40326;51.220;7.250;2022-12-18T00:08:57;8.13;;;4.93;;
54416;SDS011;40326;51.220;7.250;2022-12-18T00:11:24;7.22;;;5.10;;
54416;SDS011;40326;51.220;7.250;2022-12-18T00:13:49;9.55;;;5.38;;
54416;SDS011;40326;51.220;7.250;2022-12-18T00:16:17;8.32;;;4.90;;
54416;SDS011;40326;51.220;7.250;2022-12-18T00:18:44;9.93;;;5.90;;
54416;SDS011;40326;51.220;7.250;2022-12-18T00:21:12;8.25;;;4.95;;
54416;SDS011;40326;51.220;7.250;2022-12-18T00:23:37;8.65;;;5.32;;
54416;SDS011;40326;51.220;7.250;2022-12-18T00:26:04;8.95;;;5.75;;
54416;SDS011;40326;51.220;7.250;2022-12-18T00:28:30;8.43;;;4.90;;
54416;SDS011;40326;51.220;7.250;2022-12-18T00:31:02;7.25;;;4.70;;
54416;SDS011;40326;51.220;7.250;2022-12-18T00:33:27;8.30;;;5.22;;
54416;SDS011;40326;51.220;7.250;2022-12-18T00:35:52;9.45;;;5.38;;
54416;SDS011;40326;51.220;7.250;2022-12-18T00:38:18;9.73;;;6.25;;
54416;SDS011;40326;51.220;7.250;2022-12-18T00:40:43;10.98;;;6.72;;
54416;SDS011;40326;51.220;7.250;2022-12-18T00:43:08;9.48;;;5.85;;
54416;SDS011;40326;51.220;7.250;2022-12-18T00:45:33;9.75;;;5.97;;
54416;SDS011;40326;51.220;7.250;2022-12-18T00:47:58;8.20;;;5.50;;
54416;SDS011;40326;51.220;7.250;2022-12-18T00:50:24;10.75;;;5.70;;
54416;SDS011;40326;51.220;7.250;2022-12-18T00:52:49;8.27;;;4.82;;
54416;SDS011;40326;51.220;7.250;2022-12-18T00:55:15;10.02;;;5.75;;
54416;SDS011;40326;51.220;7.250;2022-12-18T00:57:40;8.13;;;5.28;;
54416;SDS011;40326;51.220;7.250;2022-12-18T01:00:06;10.82;;;5.82;;
54416;SDS011;40326;51.220;7.250;2022-12-18T01:02:31;10.30;;;6.25;;
54416;SDS011;40326;51.220;7.250;2022-12-18T01:04:57;10.25;;;5.82;;
54416;SDS011;40326;51.220;7.250;2022-12-18T01:07:22;10.55;;;6.10;;
54416;SDS011;40326;51.220;7.250;2022-12-18T01:09:47;9.30;;;5.55;;
54416;SDS011;40326;51.220;7.250;2022-12-18T01:12:12;10.05;;;5.63;;
54416;SDS011;40326;51.220;7.250;2022-12-18T01:14:37;11.82;;;6.10;;
54416;SDS011;40326;51.220;7.250;2022-12-18T01:17:03;9.80;;;6.18;;
54416;SDS011;40326;51.220;7.250;2022-12-18T01:19:28;8.20;;;5.20;;
54416;SDS011;40326;51.220;7.250;2022-12-18T01:21:53;11.00;;;6.25;;
54416;SDS011;40326;51.220;7.250;2022-12-18T01:24:19;9.85;;;5.40;;
54416;SDS011;40326;51.220;7.250;2022-12-18T01:26:44;10.38;;;5.53;;
54416;SDS011;40326;51.220;7.250;2022-12-18T01:29:09;9.50;;;5.70;;
54416;SDS011;40326;51.220;7.250;2022-12-18T01:31:35;10.65;;;5.90;;
54416;SDS011;40326;51.220;7.250;2022-12-18T01:34:01;10.30;;;5.60;;
54416;SDS011;40326;51.220;7.250;2022-12-18T01:36:30;9.52;;;5.43;;
54416;SDS011;40326;51.220;7.250;2022-12-18T01:38:56;9.43;;;5.95;;
54416;SDS011;40326;51.220;7.250;2022-12-18T01:41:22;8.27;;;5.40;;
54416;SDS011;40326;51.220;7.250;2022-12-18T01:43:50;9.82;;;5.32;;
54416;SDS011;40326;51.220;7.250;2022-12-18T01:46:16;9.88;;;6.10;;
54416;SDS011;40326;51.220;7.250;2022-12-18T01:48:41;8.50;;;5.45;;
54416;SDS011;40326;51.220;7.250;2022-12-18T01:51:07;8.98;;;5.40;;
54416;SDS011;40326;51.220;7.250;2022-12-18T01:53:33;10.60;;;5.90;;
54416;SDS011;40326;51.220;7.250;2022-12-18T01:55:58;8.32;;;5.22;;
54416;SDS011;40326;51.220;7.250;2022-12-18T01:58:27;9.65;;;6.07;;
54416;SDS011;40326;51.220;7.250;2022-12-18T02:00:55;8.70;;;5.68;;
54416;SDS011;40326;51.220;7.250;2022-12-18T02:03:20;9.70;;;5.68;;
54416;SDS011;40326;51.220;7.250;2022-12-18T02:05:50;8.98;;;5.53;;
54416;SDS011;40326;51.220;7.250;2022-12-18T02:08:34;9.43;;;6.45;;
54416;SDS011;40326;51.220;7.250;2022-12-18T02:11:20;7.88;;;4.95;;
54416;SDS011;40326;51.220;7.250;2022-12-18T02:14:08;10.68;;;5.65;;
54416;SDS011;40326;51.220;7.250;2022-12-18T02:16:48;7.97;;;5.10;;
54416;SDS011;40326;51.220;7.250;2022-12-18T02:19:34;9.25;;;5.40;;
54416;SDS011;40326;51.220;7.250;2022-12-18T02:22:15;8.80;;;5.45;;
54416;SDS011;40326;51.220;7.250;2022-12-18T02:24:45;9.10;;;5.55;;
54416;SDS011;40326;51.220;7.250;2022-12-18T02:27:16;8.30;;;5.20;;
54416;SDS011;40326;51.220;7.250;2022-12-18T02:29:48;9.05;;;5.40;;
54416;SDS011;40326;51.220;7.250;2022-12-18T02:32:16;10.60;;;5.85;;
54416;SDS011;40326;51.220;7.250;2022-12-18T02:34:43;9.32;;;5.60;;
54416;SDS011;40326;51.220;7.250;2022-12-18T02:37:10;8.52;;;5.20;;
54416;SDS011;40326;51.220;7.250;2022-12-18T02:39:37;8.82;;;5.72;;
54416;SDS011;40326;51.220;7.250;2022-12-18T02:42:03;8.82;;;5.75;;
54416;SDS011;40326;51.220;7.250;2022-12-18T02:44:32;8.25;;;5.50;;
54416;SDS011;40326;51.220;7.250;2022-12-18T02:46:57;8.52;;;5.30;;
54416;SDS011;40326;51.220;7.250;2022-12-18T02:49:29;12.05;;;5.57;;
54416;SDS011;40326;51.220;7.250;2022-12-18T02:54:55;9.05;;;5.18;;
54416;SDS011;40326;51.220;7.250;2022-12-18T03:00:19;8.65;;;5.18;;
54416;SDS011;40326;51.220;7.250;2022-12-18T03:05:20;7.70;;;4.82;;
54416;SDS011;40326;51.220;7.250;2022-12-18T03:07:51;8.95;;;5.10;;
54416;SDS011;40326;51.220;7.250;2022-12-18T03:10:19;10.70;;;6.32;;
54416;SDS011;40326;51.220;7.250;2022-12-18T03:13:05;8.13;;;5.03;;
54416;SDS011;40326;51.220;7.250;2022-12-18T03:15:38;7.47;;;4.80;;
54416;SDS011;40326;51.220;7.250;2022-12-18T03:18:17;7.88;;;5.13;;
54416;SDS011;40326;51.220;7.250;2022-12-18T03:20:43;8.32;;;5.30;;
54416;SDS011;40326;51.220;7.250;2022-12-18T03:23:09;8.13;;;4.75;;
54416;SDS011;40326;51.220;7.250;2022-12-18T03:25:36;8.50;;;5.70;;
54416;SDS011;40326;51.220;7.250;2022-12-18T03:28:04;9.57;;;5.30;;
54416;SDS011;40326;51.220;7.250;2022-12-18T03:30:30;8.70;;;7.00;;
54416;SDS011;40326;51.220;7.250;2022-12-18T03:35:29;8.48;;;5.75;;
54416;SDS011;40326;51.220;7.250;2022-12-18T03:37:55;10.20;;;5.22;;
54416;SDS011;40326;51.220;7.250;2022-12-18T03:40:21;7.60;;;4.85;;
54416;SDS011;40326;51.220;7.250;2022-12-18T03:42:48;7.38;;;4.68;;
54416;SDS011;40326;51.220;7.250;2022-12-18T03:45:26;8.60;;;5.10;;
54416;SDS011;40326;51.220;7.250;2022-12-18T03:48:09;9.18;;;5.50;;
54416;SDS011;40326;51.220;7.250;2022-12-18T03:50:46;6.93;;;4.72;;
54416;SDS011;40326;51.220;7.250;2022-12-18T03:58:22;9.07;;;5.07;;
54416;SDS011;40326;51.220;7.250;2022-12-18T04:00:48;7.10;;;4.85;;
54416;SDS011;40326;51.220;7.250;2022-12-18T04:03:15;8.00;;;5.15;;
54416;SDS011;40326;51.220;7.250;2022-12-18T04:05:42;8.20;;;4.70;;
54416;SDS011;40326;51.220;7.250;2022-12-18T04:08:08;7.60;;;4.90;;
54416;SDS011;40326;51.220;7.250;2022-12-18T04:10:34;8.55;;;4.50;;
54416;SDS011;40326;51.220;7.250;2022-12-18T04:12:59;8.43;;;4.90;;
54416;SDS011;40326;51.220;7.250;2022-12-18T04:15:24;15.88;;;10.98;;
54416;SDS011;40326;51.220;7.250;2022-12-18T04:17:50;7.82;;;4.72;;
54416;SDS011;40326;51.220;7.250;2022-12-18T04:20:15;8.18;;;5.07;;
54416;SDS011;40326;51.220;7.250;2022-12-18T04:22:41;7.53;;;5.05;;
54416;SDS011;40326;51.220;7.250;2022-12-18T04:25:06;7.57;;;4.63;;
54416;SDS011;40326;51.220;7.250;2022-12-18T04:27:31;8.70;;;4.95;;
54416;SDS011;40326;51.220;7.250;2022-12-18T04:29:56;7.30;;;4.70;;
54416;SDS011;40326;51.220;7.250;2022-12-18T04:32:22;8.52;;;5.07;;
54416;SDS011;40326;51.220;7.250;2022-12-18T04:34:47;8.63;;;5.07;;
54416;SDS011;40326;51.220;7.250;2022-12-18T04:37:12;8.48;;;5.25;;
54416;SDS011;40326;51.220;7.250;2022-12-18T04:39:37;8.00;;;5.07;;
54416;SDS011;40326;51.220;7.250;2022-12-18T04:42:02;8.80;;;4.88;;
54416;SDS011;40326;51.220;7.250;2022-12-18T04:44:28;7.80;;;4.95;;
54416;SDS011;40326;51.220;7.250;2022-12-18T04:46:53;7.57;;;4.70;;
54416;SDS011;40326;51.220;7.250;2022-12-18T04:49:18;7.93;;;4.68;;
54416;SDS011;40326;51.220;7.250;2022-12-18T04:51:43;10.57;;;4.90;;
54416;SDS011;40326;51.220;7.250;2022-12-18T04:54:09;8.45;;;4.80;;
54416;SDS011;40326;51.220;7.250;2022-12-18T04:56:34;8.02;;;4.53;;
54416;SDS011;40326;51.220;7.250;2022-12-18T04:58:59;7.43;;;4.45;;
54416;SDS011;40326;51.220;7.250;2022-12-18T05:01:24;7.70;;;4.50;;
54416;SDS011;40326;51.220;7.250;2022-12-18T05:03:50;7.55;;;4.78;;
54416;SDS011;40326;51.220;7.250;2022-12-18T05:06:15;7.72;;;4.72;;
54416;SDS011;40326;51.220;7.250;2022-12-18T05:08:41;7.05;;;4.28;;
54416;SDS011;40326;51.220;7.250;2022-12-18T05:11:07;8.90;;;4.97;;
54416;SDS011;40326;51.220;7.250;2022-12-18T05:13:33;8.18;;;4.78;;
54416;SDS011;40326;51.220;7.250;2022-12-18T05:15:59;8.45;;;5.25;;
54416;SDS011;40326;51.220;7.250;2022-12-18T05:18:24;7.63;;;5.10;;
54416;SDS011;40326;51.220;7.250;2022-12-18T05:20:50;8.25;;;4.85;;
54416;SDS011;40326;51.220;7.250;2022-12-18T05:23:15;7.93;;;4.68;;
54416;SDS011;40326;51.220;7.250;2022-12-18T05:25:40;15.15;;;9.98;;
54416;SDS011;40326;51.220;7.250;2022-12-18T05:28:05;6.72;;;4.38;;
54416;SDS011;40326;51.220;7.250;2022-12-18T05:30:31;8.10;;;5.03;;
54416;SDS011;40326;51.220;7.250;2022-12-18T05:32:56;7.53;;;5.00;;
54416;SDS011;40326;51.220;7.250;2022-12-18T05:35:21;7.25;;;4.72;;
54416;SDS011;40326;51.220;7.250;2022-12-18T05:37:46;8.25;;;4.45;;
54416;SDS011;40326;51.220;7.250;2022-12-18T05:40:12;8.52;;;5.10;;
54416;SDS011;40326;51.220;7.250;2022-12-18T05:42:37;7.60;;;4.82;;
54416;SDS011;40326;51.220;7.250;2022-12-18T05:45:02;8.05;;;4.60;;
54416;SDS011;40326;51.220;7.250;2022-12-18T05:47:28;7.38;;;4.50;;
54416;SDS011;40326;51.220;7.250;2022-12-18T05:49:53;8.55;;;4.90;;
54416;SDS011;40326;51.220;7.250;2022-12-18T05:52:19;8.38;;;5.10;;
54416;SDS011;40326;51.220;7.250;2022-12-18T05:54:44;8.40;;;4.93;;
54416;SDS011;40326;51.220;7.250;2022-12-18T05:57:09;8.65;;;5.43;;
54416;SDS011;40326;51.220;7.250;2022-12-18T05:59:35;8.15;;;5.25;;
54416;SDS011;40326;51.220;7.250;2022-12-18T06:02:00;8.45;;;4.82;;
54416;SDS011;40326;51.220;7.250;2022-12-18T06:04:26;9.10;;;5.38;;
54416;SDS011;40326;51.220;7.250;2022-12-18T06:06:52;8.43;;;5.50;;
54416;SDS011;40326;51.220;7.250;2022-12-18T06:09:17;9.00;;;5.03;;
54416;SDS011;40326;51.220;7.250;2022-12-18T06:11:42;9.40;;;5.60;;
54416;SDS011;40326;51.220;7.250;2022-12-18T06:14:08;7.95;;;5.28;;
54416;SDS011;40326;51.220;7.250;2022-12-18T06:16:33;8.75;;;5.32;;
54416;SDS011;40326;51.220;7.250;2022-12-18T06:18:59;9.15;;;6.15;;
54416;SDS011;40326;51.220;7.250;2022-12-18T06:21:24;11.20;;;9.52;;
54416;SDS011;40326;51.220;7.250;2022-12-18T06:23:49;9.63;;;6.53;;
54416;SDS011;40326;51.220;7.250;2022-12-18T06:26:14;9.57;;;6.10;;
54416;SDS011;40326;51.220;7.250;2022-12-18T06:28:40;10.75;;;6.32;;
54416;SDS011;40326;51.220;7.250;2022-12-18T06:31:05;8.15;;;5.68;;
54416;SDS011;40326;51.220;7.250;2022-12-18T06:33:30;9.60;;;5.47;;
54416;SDS011;40326;51.220;7.250;2022-12-18T06:36:00;10.57;;;6.10;;
54416;SDS011;40326;51.220;7.250;2022-12-18T06:38:25;9.07;;;6.00;;
54416;SDS011;40326;51.220;7.250;2022-12-18T06:40:50;8.52;;;5.80;;
54416;SDS011;40326;51.220;7.250;2022-12-18T06:43:15;10.80;;;6.72;;
54416;SDS011;40326;51.220;7.250;2022-12-18T06:45:40;9.98;;;5.90;;
54416;SDS011;40326;51.220;7.250;2022-12-18T06:48:06;10.40;;;6.72;;
54416;SDS011;40326;51.220;7.250;2022-12-18T06:50:31;12.30;;;6.57;;
54416;SDS011;40326;51.220;7.250;2022-12-18T06:52:56;9.57;;;6.28;;
54416;SDS011;40326;51.220;7.250;2022-12-18T06:55:21;11.93;;;6.35;;
54416;SDS011;40326;51.220;7.250;2022-12-18T06:57:47;10.82;;;6.32;;
54416;SDS011;40326;51.220;7.250;2022-12-18T07:00:12;11.32;;;6.47;;
54416;SDS011;40326;51.220;7.250;2022-12-18T07:02:38;11.30;;;6.80;;
54416;SDS011;40326;51.220;7.250;2022-12-18T07:05:04;9.40;;;6.13;;
54416;SDS011;40326;51.220;7.250;2022-12-18T07:07:29;12.25;;;6.57;;
54416;SDS011;40326;51.220;7.250;2022-12-18T07:09:54;10.65;;;6.40;;
54416;SDS011;40326;51.220;7.250;2022-12-18T07:12:19;10.75;;;5.88;;
54416;SDS011;40326;51.220;7.250;2022-12-18T07:14:44;10.15;;;6.10;;
54416;SDS011;40326;51.220;7.250;2022-12-18T07:17:10;10.25;;;6.32;;
54416;SDS011;40326;51.220;7.250;2022-12-18T07:19:35;10.13;;;6.32;;
54416;SDS011;40326;51.220;7.250;2022-12-18T07:22:00;10.20;;;6.60;;
54416;SDS011;40326;51.220;7.250;2022-12-18T07:24:26;10.13;;;6.18;;
54416;SDS011;40326;51.220;7.250;2022-12-18T07:26:51;9.52;;;5.55;;
54416;SDS011;40326;51.220;7.250;2022-12-18T07:29:16;11.85;;;6.63;;
54416;SDS011;40326;51.220;7.250;2022-12-18T07:31:41;12.43;;;6.88;;
54416;SDS011;40326;51.220;7.250;2022-12-18T07:34:09;9.10;;;5.95;;
54416;SDS011;40326;51.220;7.250;2022-12-18T07:36:35;11.13;;;6.53;;
54416;SDS011;40326;51.220;7.250;2022-12-18T07:39:00;10.02;;;5.97;;
54416;SDS011;40326;51.220;7.250;2022-12-18T07:41:25;10.75;;;6.15;;
54416;SDS011;40326;51.220;7.250;2022-12-18T07:43:50;10.35;;;6.35;;
54416;SDS011;40326;51.220;7.250;2022-12-18T07:46:16;9.52;;;6.25;;
54416;SDS011;40326;51.220;7.250;2022-12-18T07:48:41;9.02;;;5.82;;
54416;SDS011;40326;51.220;7.250;2022-12-18T07:51:07;10.40;;;6.07;;
54416;SDS011;40326;51.220;7.250;2022-12-18T07:53:32;11.55;;;6.18;;
54416;SDS011;40326;51.220;7.250;2022-12-18T07:55:58;10.40;;;5.60;;
54416;SDS011;40326;51.220;7.250;2022-12-18T07:58:23;9.63;;;6.45;;
54416;SDS011;40326;51.220;7.250;2022-12-18T08:00:48;9.70;;;5.95;;
54416;SDS011;40326;51.220;7.250;2022-12-18T08:03:14;9.80;;;6.28;;
54416;SDS011;40326;51.220;7.250;2022-12-18T08:05:39;9.85;;;5.57;;
54416;SDS011;40326;51.220;7.250;2022-12-18T08:08:04;9.68;;;5.88;;
54416;SDS011;40326;51.220;7.250;2022-12-18T08:10:29;9.57;;;5.60;;
54416;SDS011;40326;51.220;7.250;2022-12-18T08:12:54;9.98;;;5.85;;
54416;SDS011;40326;51.220;7.250;2022-12-18T08:15:20;10.57;;;5.85;;
54416;SDS011;40326;51.220;7.250;2022-12-18T08:17:45;9.60;;;6.18;;
54416;SDS011;40326;51.220;7.250;2022-12-18T08:20:10;11.45;;;6.47;;
54416;SDS011;40326;51.220;7.250;2022-12-18T08:22:35;11.52;;;6.68;;
54416;SDS011;40326;51.220;7.250;2022-12-18T08:25:01;9.52;;;5.90;;
54416;SDS011;40326;51.220;7.250;2022-12-18T08:27:27;9.77;;;6.55;;
54416;SDS011;40326;51.220;7.250;2022-12-18T08:29:52;8.38;;;5.28;;
54416;SDS011;40326;51.220;7.250;2022-12-18T08:32:17;9.90;;;5.28;;
54416;SDS011;40326;51.220;7.250;2022-12-18T08:34:42;8.85;;;5.25;;
54416;SDS011;40326;51.220;7.250;2022-12-18T08:37:07;8.10;;;5.32;;
54416;SDS011;40326;51.220;7.250;2022-12-18T08:39:32;8.60;;;4.95;;
54416;SDS011;40326;51.220;7.250;2022-12-18T08:41:59;10.63;;;6.22;;
54416;SDS011;40326;51.220;7.250;2022-12-18T08:47:08;7.82;;;5.07;;
54416;SDS011;40326;51.220;7.250;2022-12-18T08:49:33;10.98;;;5.35;;
54416;SDS011;40326;51.220;7.250;2022-12-18T08:51:59;8.80;;;5.65;;
54416;SDS011;40326;51.220;7.250;2022-12-18T08:54:25;7.72;;;5.03;;
54416;SDS011;40326;51.220;7.250;2022-12-18T08:56:50;9.75;;;5.22;;
54416;SDS011;40326;51.220;7.250;2022-12-18T08:59:16;8.18;;;5.25;;
54416;SDS011;40326;51.220;7.250;2022-12-18T09:01:41;9.68;;;5.38;;
54416;SDS011;40326;51.220;7.250;2022-12-18T09:04:07;10.25;;;5.90;;
54416;SDS011;40326;51.220;7.250;2022-12-18T09:06:32;8.40;;;5.05;;
54416;SDS011;40326;51.220;7.250;2022-12-18T09:08:57;8.70;;;4.88;;
54416;SDS011;40326;51.220;7.250;2022-12-18T09:11:24;8.35;;;5.15;;
54416;SDS011;40326;51.220;7.250;2022-12-18T09:13:50;8.38;;;5.18;;
54416;SDS011;40326;51.220;7.250;2022-12-18T09:16:15;9.75;;;5.72;;
54416;SDS011;40326;51.220;7.250;2022-12-18T09:18:40;7.88;;;4.90;;
54416;SDS011;40326;51.220;7.250;2022-12-18T09:21:09;8.35;;;5.93;;
54416;SDS011;40326;51.220;7.250;2022-12-18T09:23:34;6.88;;;4.68;;
54416;SDS011;40326;51.220;7.250;2022-12-18T09:26:00;7.55;;;4.88;;
54416;SDS011;40326;51.220;7.250;2022-12-18T09:28:26;8.73;;;6.32;;
54416;SDS011;40326;51.220;7.250;2022-12-18T09:30:52;6.70;;;4.10;;
54416;SDS011;40326;51.220;7.250;2022-12-18T09:33:17;6.97;;;4.03;;
54416;SDS011;40326;51.220;7.250;2022-12-18T09:35:43;7.80;;;4.60;;
54416;SDS011;40326;51.220;7.250;2022-12-18T09:38:09;6.70;;;4.18;;
54416;SDS011;40326;51.220;7.250;2022-12-18T09:40:36;8.32;;;4.38;;
54416;SDS011;40326;51.220;7.250;2022-12-18T09:43:05;8.00;;;4.68;;
54416;SDS011;40326;51.220;7.250;2022-12-18T09:45:34;5.65;;;3.60;;
54416;SDS011;40326;51.220;7.250;2022-12-18T09:48:03;7.68;;;4.28;;
54416;SDS011;40326;51.220;7.250;2022-12-18T09:50:33;6.65;;;3.70;;
54416;SDS011;40326;51.220;7.250;2022-12-18T09:53:02;11.07;;;8.93;;
54416;SDS011;40326;51.220;7.250;2022-12-18T09:55:32;7.22;;;4.22;;
54416;SDS011;40326;51.220;7.250;2022-12-18T10:00:39;6.75;;;4.30;;
54416;SDS011;40326;51.220;7.250;2022-12-18T10:03:08;7.25;;;3.83;;
54416;SDS011;40326;51.220;7.250;2022-12-18T10:08:06;6.82;;;4.40;;
54416;SDS011;40326;51.220;7.250;2022-12-18T10:15:40;7.28;;;4.15;;
54416;SDS011;40326;51.220;7.250;2022-12-18T10:20:44;6.97;;;4.40;;
54416;SDS011;40326;51.220;7.250;2022-12-18T10:23:14;7.00;;;4.30;;
54416;SDS011;40326;51.220;7.250;2022-12-18T10:25:53;7.03;;;4.60;;
54416;SDS011;40326;51.220;7.250;2022-12-18T10:28:20;6.22;;;3.90;;
54416;SDS011;40326;51.220;7.250;2022-12-18T10:30:46;6.60;;;3.92;;
54416;SDS011;40326;51.220;7.250;2022-12-18T10:33:12;7.38;;;3.97;;
54416;SDS011;40326;51.220;7.250;2022-12-18T10:35:39;7.90;;;4.70;;
54416;SDS011;40326;51.220;7.250;2022-12-18T10:40:47;6.60;;;4.32;;
54416;SDS011;40326;51.220;7.250;2022-12-18T10:43:14;7.50;;;4.28;;
54416;SDS011;40326;51.220;7.250;2022-12-18T10:45:40;6.57;;;4.43;;
54416;SDS011;40326;51.220;7.250;2022-12-18T10:48:16;7.40;;;3.75;;
54416;SDS011;40326;51.220;7.250;2022-12-18T10:50:42;6.15;;;3.80;;
54416;SDS011;40326;51.220;7.250;2022-12-18T10:53:13;7.00;;;4.45;;
54416;SDS011;40326;51.220;7.250;2022-12-18T10:55:41;7.28;;;4.60;;
54416;SDS011;40326;51.220;7.250;2022-12-18T11:01:44;7.40;;;4.30;;
54416;SDS011;40326;51.220;7.250;2022-12-18T11:06:16;7.25;;;4.60;;
54416;SDS011;40326;51.220;7.250;2022-12-18T11:08:41;7.32;;;4.78;;
54416;SDS011;40326;51.220;7.250;2022-12-18T11:11:14;7.10;;;4.90;;
54416;SDS011;40326;51.220;7.250;2022-12-18T11:13:41;7.45;;;4.93;;
54416;SDS011;40326;51.220;7.250;2022-12-18T11:16:06;7.38;;;4.50;;
54416;SDS011;40326;51.220;7.250;2022-12-18T11:18:32;6.57;;;4.30;;
54416;SDS011;40326;51.220;7.250;2022-12-18T11:20:59;7.95;;;4.78;;
54416;SDS011;40326;51.220;7.250;2022-12-18T11:23:25;7.72;;;4.57;;
54416;SDS011;40326;51.220;7.250;2022-12-18T11:25:52;11.55;;;5.03;;
54416;SDS011;40326;51.220;7.250;2022-12-18T11:33:37;7.80;;;4.85;;
54416;SDS011;40326;51.220;7.250;2022-12-18T11:36:03;7.85;;;5.20;;
54416;SDS011;40326;51.220;7.250;2022-12-18T11:38:29;7.03;;;4.72;;
54416;SDS011;40326;51.220;7.250;2022-12-18T11:40:58;8.27;;;5.45;;
54416;SDS011;40326;51.220;7.250;2022-12-18T11:43:31;7.97;;;5.18;;
54416;SDS011;40326;51.220;7.250;2022-12-18T11:46:02;7.95;;;5.28;;
54416;SDS011;40326;51.220;7.250;2022-12-18T11:48:37;8.48;;;5.57;;
54416;SDS011;40326;51.220;7.250;2022-12-18T11:51:04;9.85;;;5.75;;
54416;SDS011;40326;51.220;7.250;2022-12-18T11:53:30;8.75;;;5.40;;
54416;SDS011;40326;51.220;7.250;2022-12-18T12:06:15;9.07;;;5.87;;
54416;SDS011;40326;51.220;7.250;2022-12-18T12:14:07;8.40;;;5.60;;
54416;SDS011;40326;51.220;7.250;2022-12-18T12:16:37;9.38;;;6.20;;
54416;SDS011;40326;51.220;7.250;2022-12-18T12:21:39;9.32;;;6.20;;
54416;SDS011;40326;51.220;7.250;2022-12-18T12:26:40;9.50;;;6.30;;
54416;SDS011;40326;51.220;7.250;2022-12-18T12:29:13;9.65;;;6.50;;
54416;SDS011;40326;51.220;7.250;2022-12-18T12:39:29;11.18;;;7.40;;
54416;SDS011;40326;51.220;7.250;2022-12-18T12:41:55;11.23;;;6.68;;
54416;SDS011;40326;51.220;7.250;2022-12-18T12:44:42;10.68;;;6.65;;
54416;SDS011;40326;51.220;7.250;2022-12-18T12:47:31;10.00;;;7.22;;
54416;SDS011;40326;51.220;7.250;2022-12-18T12:49:53;10.52;;;6.63;;
54416;SDS011;40326;51.220;7.250;2022-12-18T12:54:47;11.55;;;6.63;;
54416;SDS011;40326;51.220;7.250;2022-12-18T12:57:33;10.38;;;6.95;;
54416;SDS011;40326;51.220;7.250;2022-12-18T13:02:48;12.18;;;7.70;;
54416;SDS011;40326;51.220;7.250;2022-12-18T13:12:54;12.13;;;8.20;;
54416;SDS011;40326;51.220;7.250;2022-12-18T13:17:48;11.77;;;7.93;;
54416;SDS011;40326;51.220;7.250;2022-12-18T13:20:14;11.82;;;8.27;;
54416;SDS011;40326;51.220;7.250;2022-12-18T13:22:42;13.00;;;9.02;;
54416;SDS011;40326;51.220;7.250;2022-12-18T13:28:01;12.88;;;9.00;;
54416;SDS011;40326;51.220;7.250;2022-12-18T13:35:39;14.75;;;9.45;;
54416;SDS011;40326;51.220;7.250;2022-12-18T13:48:23;13.77;;;9.27;;
54416;SDS011;40326;51.220;7.250;2022-12-18T13:50:49;13.50;;;8.90;;
54416;SDS011;40326;51.220;7.250;2022-12-18T13:53:20;14.82;;;9.68;;
54416;SDS011;40326;51.220;7.250;2022-12-18T13:55:46;15.10;;;10.18;;
54416;SDS011;40326;51.220;7.250;2022-12-18T13:58:11;13.38;;;9.10;;
54416;SDS011;40326;51.220;7.250;2022-12-18T14:00:40;14.38;;;9.40;;
54416;SDS011;40326;51.220;7.250;2022-12-18T14:03:17;13.73;;;9.85;;
54416;SDS011;40326;51.220;7.250;2022-12-18T14:05:43;12.82;;;8.65;;
54416;SDS011;40326;51.220;7.250;2022-12-18T14:08:10;14.68;;;9.40;;
54416;SDS011;40326;51.220;7.250;2022-12-18T14:10:39;14.05;;;9.25;;
54416;SDS011;40326;51.220;7.250;2022-12-18T14:13:06;15.07;;;9.40;;
54416;SDS011;40326;51.220;7.250;2022-12-18T14:15:32;14.23;;;9.65;;
54416;SDS011;40326;51.220;7.250;2022-12-18T14:17:59;15.77;;;10.15;;
54416;SDS011;40326;51.220;7.250;2022-12-18T14:20:25;14.05;;;9.95;;
54416;SDS011;40326;51.220;7.250;2022-12-18T14:22:51;16.98;;;10.35;;
54416;SDS011;40326;51.220;7.250;2022-12-18T14:25:20;15.23;;;9.88;;
54416;SDS011;40326;51.220;7.250;2022-12-18T14:27:47;13.23;;;9.70;;
54416;SDS011;40326;51.220;7.250;2022-12-18T14:30:29;14.93;;;10.23;;
54416;SDS011;40326;51.220;7.250;2022-12-18T14:35:33;14.60;;;10.02;;
54416;SDS011;40326;51.220;7.250;2022-12-18T14:38:17;14.55;;;9.93;;
54416;SDS011;40326;51.220;7.250;2022-12-18T14:40:44;15.18;;;10.05;;
54416;SDS011;40326;51.220;7.250;2022-12-18T14:43:10;14.77;;;10.07;;
54416;SDS011;40326;51.220;7.250;2022-12-18T14:45:39;15.50;;;9.52;;
54416;SDS011;40326;51.220;7.250;2022-12-18T14:48:06;15.77;;;10.30;;
54416;SDS011;40326;51.220;7.250;2022-12-18T14:50:32;14.93;;;10.15;;
54416;SDS011;40326;51.220;7.250;2022-12-18T14:52:57;14.38;;;9.77;;
54416;SDS011;40326;51.220;7.250;2022-12-18T14:55:22;16.77;;;10.88;;
54416;SDS011;40326;51.220;7.250;2022-12-18T14:57:54;15.77;;;10.27;;
54416;SDS011;40326;51.220;7.250;2022-12-18T15:00:21;15.23;;;9.60;;
54416;SDS011;40326;51.220;7.250;2022-12-18T15:02:50;16.83;;;10.55;;
54416;SDS011;40326;51.220;7.250;2022-12-18T15:05:27;19.85;;;10.30;;
54416;SDS011;40326;51.220;7.250;2022-12-18T15:07:54;15.73;;;10.18;;
54416;SDS011;40326;51.220;7.250;2022-12-18T15:10:22;16.85;;;10.65;;
54416;SDS011;40326;51.220;7.250;2022-12-18T15:12:49;17.30;;;10.32;;
54416;SDS011;40326;51.220;7.250;2022-12-18T15:17:58;16.02;;;11.20;;
54416;SDS011;40326;51.220;7.250;2022-12-18T15:20:24;17.00;;;10.88;;
54416;SDS011;40326;51.220;7.250;2022-12-18T15:22:49;17.75;;;10.80;;
54416;SDS011;40326;51.220;7.250;2022-12-18T15:25:28;17.02;;;11.13;;
54416;SDS011;40326;51.220;7.250;2022-12-18T15:27:55;15.40;;;10.43;;
54416;SDS011;40326;51.220;7.250;2022-12-18T15:30:22;17.35;;;11.70;;
54416;SDS011;40326;51.220;7.250;2022-12-18T15:32:47;16.25;;;11.23;;
54416;SDS011;40326;51.220;7.250;2022-12-18T15:35:18;17.20;;;11.23;;
54416;SDS011;40326;51.220;7.250;2022-12-18T15:37:43;18.20;;;10.85;;
54416;SDS011;40326;51.220;7.250;2022-12-18T15:40:19;17.23;;;12.20;;
54416;SDS011;40326;51.220;7.250;2022-12-18T15:42:44;18.23;;;11.80;;
54416;SDS011;40326;51.220;7.250;2022-12-18T15:45:28;21.70;;;13.48;;
54416;SDS011;40326;51.220;7.250;2022-12-18T15:47:54;17.13;;;11.77;;
54416;SDS011;40326;51.220;7.250;2022-12-18T15:50:19;18.63;;;11.80;;
54416;SDS011;40326;51.220;7.250;2022-12-18T15:52:45;17.00;;;12.02;;
54416;SDS011;40326;51.220;7.250;2022-12-18T15:55:12;17.48;;;12.13;;
54416;SDS011;40326;51.220;7.250;2022-12-18T15:57:56;18.45;;;12.13;;
54416;SDS011;40326;51.220;7.250;2022-12-18T16:00:21;20.10;;;13.32;;
54416;SDS011;40326;51.220;7.250;2022-12-18T16:02:46;19.02;;;12.70;;
54416;SDS011;40326;51.220;7.250;2022-12-18T16:05:13;19.27;;;12.50;;
54416;SDS011;40326;51.220;7.250;2022-12-18T16:07:39;20.58;;;13.80;;
54416;SDS011;40326;51.220;7.250;2022-12-18T16:10:04;22.83;;;13.63;;
54416;SDS011;40326;51.220;7.250;2022-12-18T16:12:29;20.77;;;13.63;;
54416;SDS011;40326;51.220;7.250;2022-12-18T16:14:55;21.60;;;13.00;;
54416;SDS011;40326;51.220;7.250;2022-12-18T16:17:20;18.52;;;12.55;;
54416;SDS011;40326;51.220;7.250;2022-12-18T16:19:45;21.05;;;13.55;;
54416;SDS011;40326;51.220;7.250;2022-12-18T16:22:15;22.10;;;13.23;;
54416;SDS011;40326;51.220;7.250;2022-12-18T16:24:42;20.52;;;13.60;;
54416;SDS011;40326;51.220;7.250;2022-12-18T16:27:08;20.77;;;14.23;;
54416;SDS011;40326;51.220;7.250;2022-12-18T16:29:33;20.80;;;13.95;;
54416;SDS011;40326;51.220;7.250;2022-12-18T16:31:59;22.58;;;13.68;;
54416;SDS011;40326;51.220;7.250;2022-12-18T16:34:31;21.15;;;14.77;;